Welcome to La Porte Aviation Services!

An aviation adventure awaits

Current Weather Conditions

Available data for KPPO from the past 2 hours
LA PORTE, IN
Metar
KPPO 212255Z AUTO 35013G22KT 10SM SCT016 BKN022 BKN029 22/19 A2992 RMK AO2 T02200190

22:55 UTC

Wind: 350° 13kt

Visibility: 10 SM

Sky: SCT 1600 ft

Temp: 22 deg C / 71.6 deg F

Dewpoint: 19 deg C / 66.2 deg F

Pressure: 29.92 inHg

Pireps (4)
GSH UA /OV GSH120015/TM 2225/FL430/TP GLF5/TB OCNL LGHT CHOP
ORD UA /OV ORD045010/TM 2205/FL110/TP E170/TB MOD
IKK UA /OV EON/TM 2129/FL200/TP NUMS/TB CONS LGT CAT 150-210
LAF UA /OV BVT245015/TM 2116/FL370/TP B738/TB LGT-MOD

Connect with us on Facebook!

Facebook By Weblizar Powered By Weblizar